sensor_id;sensor_type;location;lat;lon;timestamp;P1;durP1;ratioP1;P2;durP2;ratioP2
44486;SDS011;30191;50.908;6.962;2023-01-08T00:02:15;2.15;;;1.23;;
44486;SDS011;30191;50.908;6.962;2023-01-08T00:04:41;1.35;;;0.90;;
44486;SDS011;30191;50.908;6.962;2023-01-08T00:07:07;2.35;;;1.00;;
44486;SDS011;30191;50.908;6.962;2023-01-08T00:09:33;1.17;;;0.98;;
44486;SDS011;30191;50.908;6.962;2023-01-08T00:11:59;1.15;;;0.88;;
44486;SDS011;30191;50.908;6.962;2023-01-08T00:14:28;1.88;;;0.90;;
44486;SDS011;30191;50.908;6.962;2023-01-08T00:16:54;1.00;;;0.90;;
44486;SDS011;30191;50.908;6.962;2023-01-08T00:19:20;1.70;;;1.00;;
44486;SDS011;30191;50.908;6.962;2023-01-08T00:21:46;1.25;;;0.90;;
44486;SDS011;30191;50.908;6.962;2023-01-08T00:24:11;1.02;;;0.90;;
44486;SDS011;30191;50.908;6.962;2023-01-08T00:26:37;1.52;;;0.85;;
44486;SDS011;30191;50.908;6.962;2023-01-08T00:29:03;1.83;;;1.00;;
44486;SDS011;30191;50.908;6.962;2023-01-08T00:31:28;1.02;;;0.80;;
44486;SDS011;30191;50.908;6.962;2023-01-08T00:33:54;2.15;;;0.90;;
44486;SDS011;30191;50.908;6.962;2023-01-08T00:36:19;1.48;;;0.65;;
44486;SDS011;30191;50.908;6.962;2023-01-08T00:38:45;1.10;;;1.00;;
44486;SDS011;30191;50.908;6.962;2023-01-08T00:41:11;1.20;;;1.00;;
44486;SDS011;30191;50.908;6.962;2023-01-08T00:43:38;1.17;;;0.77;;
44486;SDS011;30191;50.908;6.962;2023-01-08T00:46:03;1.45;;;0.82;;
44486;SDS011;30191;50.908;6.962;2023-01-08T00:48:30;1.40;;;0.77;;
44486;SDS011;30191;50.908;6.962;2023-01-08T00:50:57;1.35;;;0.88;;
44486;SDS011;30191;50.908;6.962;2023-01-08T00:53:27;1.55;;;0.80;;
44486;SDS011;30191;50.908;6.962;2023-01-08T00:56:00;3.33;;;0.80;;
44486;SDS011;30191;50.908;6.962;2023-01-08T00:58:26;0.90;;;0.77;;
44486;SDS011;30191;50.908;6.962;2023-01-08T01:00:52;1.27;;;0.70;;
44486;SDS011;30191;50.908;6.962;2023-01-08T01:03:18;2.65;;;1.05;;
44486;SDS011;30191;50.908;6.962;2023-01-08T01:05:43;2.15;;;1.00;;
44486;SDS011;30191;50.908;6.962;2023-01-08T01:08:09;1.17;;;0.85;;
44486;SDS011;30191;50.908;6.962;2023-01-08T01:10:36;2.10;;;0.80;;
44486;SDS011;30191;50.908;6.962;2023-01-08T01:13:03;1.42;;;1.05;;
44486;SDS011;30191;50.908;6.962;2023-01-08T01:15:28;1.67;;;1.20;;
44486;SDS011;30191;50.908;6.962;2023-01-08T01:17:54;1.05;;;0.85;;
44486;SDS011;30191;50.908;6.962;2023-01-08T01:20:19;1.63;;;1.00;;
44486;SDS011;30191;50.908;6.962;2023-01-08T01:22:46;1.08;;;0.80;;
44486;SDS011;30191;50.908;6.962;2023-01-08T01:25:12;2.47;;;0.70;;
44486;SDS011;30191;50.908;6.962;2023-01-08T01:27:37;1.63;;;0.73;;
44486;SDS011;30191;50.908;6.962;2023-01-08T01:30:04;2.70;;;0.80;;
44486;SDS011;30191;50.908;6.962;2023-01-08T01:32:30;1.00;;;0.80;;
44486;SDS011;30191;50.908;6.962;2023-01-08T01:34:56;1.63;;;1.05;;
44486;SDS011;30191;50.908;6.962;2023-01-08T01:37:21;1.00;;;0.80;;
44486;SDS011;30191;50.908;6.962;2023-01-08T01:39:47;3.38;;;1.10;;
44486;SDS011;30191;50.908;6.962;2023-01-08T01:42:13;2.00;;;0.80;;
44486;SDS011;30191;50.908;6.962;2023-01-08T01:45:00;1.70;;;0.85;;
44486;SDS011;30191;50.908;6.962;2023-01-08T01:47:41;1.50;;;1.00;;
44486;SDS011;30191;50.908;6.962;2023-01-08T01:50:13;2.20;;;1.23;;
44486;SDS011;30191;50.908;6.962;2023-01-08T01:52:45;2.08;;;1.05;;
44486;SDS011;30191;50.908;6.962;2023-01-08T01:55:16;1.33;;;0.90;;
44486;SDS011;30191;50.908;6.962;2023-01-08T01:57:43;1.40;;;1.02;;
44486;SDS011;30191;50.908;6.962;2023-01-08T02:00:17;1.77;;;0.80;;
44486;SDS011;30191;50.908;6.962;2023-01-08T02:02:43;1.73;;;1.05;;
44486;SDS011;30191;50.908;6.962;2023-01-08T02:05:09;1.58;;;1.00;;
44486;SDS011;30191;50.908;6.962;2023-01-08T02:10:06;1.90;;;0.90;;
44486;SDS011;30191;50.908;6.962;2023-01-08T02:13:01;2.00;;;1.17;;
44486;SDS011;30191;50.908;6.962;2023-01-08T02:15:33;2.92;;;1.75;;
44486;SDS011;30191;50.908;6.962;2023-01-08T02:18:33;2.00;;;1.13;;
44486;SDS011;30191;50.908;6.962;2023-01-08T02:21:10;1.67;;;1.00;;
44486;SDS011;30191;50.908;6.962;2023-01-08T02:23:45;2.60;;;1.17;;
44486;SDS011;30191;50.908;6.962;2023-01-08T02:26:31;2.03;;;1.20;;
44486;SDS011;30191;50.908;6.962;2023-01-08T02:29:08;2.58;;;1.13;;
44486;SDS011;30191;50.908;6.962;2023-01-08T02:31:37;2.22;;;1.35;;
44486;SDS011;30191;50.908;6.962;2023-01-08T02:34:04;2.88;;;1.10;;
44486;SDS011;30191;50.908;6.962;2023-01-08T02:41:34;1.85;;;1.15;;
44486;SDS011;30191;50.908;6.962;2023-01-08T02:44:17;3.00;;;1.25;;
44486;SDS011;30191;50.908;6.962;2023-01-08T02:46:49;3.83;;;1.30;;
44486;SDS011;30191;50.908;6.962;2023-01-08T02:49:16;2.00;;;1.38;;
44486;SDS011;30191;50.908;6.962;2023-01-08T02:51:48;2.75;;;1.20;;
44486;SDS011;30191;50.908;6.962;2023-01-08T02:54:18;2.60;;;1.35;;
44486;SDS011;30191;50.908;6.962;2023-01-08T02:56:48;1.73;;;1.23;;
44486;SDS011;30191;50.908;6.962;2023-01-08T02:59:19;1.73;;;1.20;;
44486;SDS011;30191;50.908;6.962;2023-01-08T03:01:46;1.40;;;1.17;;
44486;SDS011;30191;50.908;6.962;2023-01-08T03:04:14;1.88;;;1.17;;
44486;SDS011;30191;50.908;6.962;2023-01-08T03:06:43;3.35;;;1.00;;
44486;SDS011;30191;50.908;6.962;2023-01-08T03:09:10;1.45;;;1.00;;
44486;SDS011;30191;50.908;6.962;2023-01-08T03:14:53;2.08;;;1.20;;
44486;SDS011;30191;50.908;6.962;2023-01-08T03:17:23;2.03;;;1.08;;
44486;SDS011;30191;50.908;6.962;2023-01-08T03:20:02;1.60;;;0.98;;
44486;SDS011;30191;50.908;6.962;2023-01-08T03:22:34;1.80;;;1.13;;
44486;SDS011;30191;50.908;6.962;2023-01-08T03:25:03;1.60;;;1.05;;
44486;SDS011;30191;50.908;6.962;2023-01-08T03:27:31;1.95;;;1.02;;
44486;SDS011;30191;50.908;6.962;2023-01-08T03:30:01;1.20;;;1.10;;
44486;SDS011;30191;50.908;6.962;2023-01-08T03:32:28;1.83;;;1.02;;
44486;SDS011;30191;50.908;6.962;2023-01-08T03:34:55;1.00;;;0.90;;
44486;SDS011;30191;50.908;6.962;2023-01-08T03:37:23;2.50;;;1.10;;
44486;SDS011;30191;50.908;6.962;2023-01-08T03:39:59;1.10;;;1.00;;
44486;SDS011;30191;50.908;6.962;2023-01-08T03:42:29;1.70;;;0.90;;
44486;SDS011;30191;50.908;6.962;2023-01-08T03:44:56;1.33;;;0.95;;
44486;SDS011;30191;50.908;6.962;2023-01-08T03:47:29;1.38;;;1.00;;
44486;SDS011;30191;50.908;6.962;2023-01-08T03:49:59;1.52;;;0.80;;
44486;SDS011;30191;50.908;6.962;2023-01-08T03:52:27;1.70;;;0.90;;
44486;SDS011;30191;50.908;6.962;2023-01-08T03:54:54;1.15;;;0.90;;
44486;SDS011;30191;50.908;6.962;2023-01-08T03:57:20;1.35;;;0.70;;
44486;SDS011;30191;50.908;6.962;2023-01-08T03:59:46;1.55;;;0.80;;
44486;SDS011;30191;50.908;6.962;2023-01-08T04:02:12;1.67;;;1.05;;
44486;SDS011;30191;50.908;6.962;2023-01-08T04:04:38;2.88;;;0.90;;
44486;SDS011;30191;50.908;6.962;2023-01-08T04:07:04;1.70;;;0.60;;
44486;SDS011;30191;50.908;6.962;2023-01-08T04:09:30;5.15;;;3.17;;
44486;SDS011;30191;50.908;6.962;2023-01-08T04:11:55;1.23;;;0.95;;
44486;SDS011;30191;50.908;6.962;2023-01-08T04:14:21;0.90;;;0.63;;
44486;SDS011;30191;50.908;6.962;2023-01-08T04:16:47;1.42;;;0.82;;
44486;SDS011;30191;50.908;6.962;2023-01-08T04:19:12;0.88;;;0.60;;
44486;SDS011;30191;50.908;6.962;2023-01-08T04:21:38;0.75;;;0.70;;
44486;SDS011;30191;50.908;6.962;2023-01-08T04:24:04;1.02;;;0.70;;
44486;SDS011;30191;50.908;6.962;2023-01-08T04:26:30;1.92;;;0.60;;
44486;SDS011;30191;50.908;6.962;2023-01-08T04:28:56;1.33;;;0.80;;
44486;SDS011;30191;50.908;6.962;2023-01-08T04:31:22;1.48;;;1.00;;
44486;SDS011;30191;50.908;6.962;2023-01-08T04:33:48;1.88;;;0.60;;
44486;SDS011;30191;50.908;6.962;2023-01-08T04:36:13;1.02;;;0.57;;
44486;SDS011;30191;50.908;6.962;2023-01-08T04:38:39;1.50;;;0.60;;
44486;SDS011;30191;50.908;6.962;2023-01-08T04:41:05;0.93;;;0.50;;
44486;SDS011;30191;50.908;6.962;2023-01-08T04:43:31;0.52;;;0.50;;
44486;SDS011;30191;50.908;6.962;2023-01-08T04:45:57;1.20;;;0.50;;
44486;SDS011;30191;50.908;6.962;2023-01-08T04:48:24;1.77;;;0.50;;
44486;SDS011;30191;50.908;6.962;2023-01-08T04:50:50;0.40;;;0.40;;
44486;SDS011;30191;50.908;6.962;2023-01-08T04:53:16;0.65;;;0.30;;
44486;SDS011;30191;50.908;6.962;2023-01-08T04:55:41;1.13;;;0.32;;
44486;SDS011;30191;50.908;6.962;2023-01-08T04:58:07;1.20;;;0.30;;
44486;SDS011;30191;50.908;6.962;2023-01-08T05:00:33;0.55;;;0.40;;
44486;SDS011;30191;50.908;6.962;2023-01-08T05:02:59;0.45;;;0.28;;
44486;SDS011;30191;50.908;6.962;2023-01-08T05:05:24;0.38;;;0.30;;
44486;SDS011;30191;50.908;6.962;2023-01-08T05:07:50;0.75;;;0.40;;
44486;SDS011;30191;50.908;6.962;2023-01-08T05:10:16;0.43;;;0.30;;
44486;SDS011;30191;50.908;6.962;2023-01-08T05:12:42;0.40;;;0.30;;
44486;SDS011;30191;50.908;6.962;2023-01-08T05:15:08;0.20;;;0.20;;
44486;SDS011;30191;50.908;6.962;2023-01-08T05:17:33;1.65;;;0.35;;
44486;SDS011;30191;50.908;6.962;2023-01-08T05:19:59;0.50;;;0.30;;
44486;SDS011;30191;50.908;6.962;2023-01-08T05:22:25;0.65;;;0.40;;
44486;SDS011;30191;50.908;6.962;2023-01-08T05:24:50;1.92;;;0.35;;
44486;SDS011;30191;50.908;6.962;2023-01-08T05:27:16;1.63;;;0.40;;
44486;SDS011;30191;50.908;6.962;2023-01-08T05:29:42;1.23;;;0.40;;
44486;SDS011;30191;50.908;6.962;2023-01-08T05:32:15;0.40;;;0.30;;
44486;SDS011;30191;50.908;6.962;2023-01-08T05:34:42;0.32;;;0.30;;
44486;SDS011;30191;50.908;6.962;2023-01-08T05:37:08;0.13;;;0.13;;
44486;SDS011;30191;50.908;6.962;2023-01-08T05:39:33;0.45;;;0.30;;
44486;SDS011;30191;50.908;6.962;2023-01-08T05:41:59;0.80;;;0.20;;
44486;SDS011;30191;50.908;6.962;2023-01-08T05:44:25;0.73;;;0.22;;
44486;SDS011;30191;50.908;6.962;2023-01-08T05:46:54;0.60;;;0.20;;
44486;SDS011;30191;50.908;6.962;2023-01-08T05:49:20;0.38;;;0.30;;
44486;SDS011;30191;50.908;6.962;2023-01-08T05:51:48;0.30;;;0.30;;
44486;SDS011;30191;50.908;6.962;2023-01-08T05:54:15;0.40;;;0.30;;
44486;SDS011;30191;50.908;6.962;2023-01-08T05:56:40;0.38;;;0.30;;
44486;SDS011;30191;50.908;6.962;2023-01-08T05:59:09;0.47;;;0.30;;
44486;SDS011;30191;50.908;6.962;2023-01-08T06:01:36;0.68;;;0.30;;
44486;SDS011;30191;50.908;6.962;2023-01-08T06:04:01;0.32;;;0.30;;
44486;SDS011;30191;50.908;6.962;2023-01-08T06:06:27;0.30;;;0.30;;
44486;SDS011;30191;50.908;6.962;2023-01-08T06:08:53;0.30;;;0.30;;
44486;SDS011;30191;50.908;6.962;2023-01-08T06:11:18;1.10;;;0.40;;
44486;SDS011;30191;50.908;6.962;2023-01-08T06:13:44;0.57;;;0.32;;
44486;SDS011;30191;50.908;6.962;2023-01-08T06:16:10;0.50;;;0.30;;
44486;SDS011;30191;50.908;6.962;2023-01-08T06:18:36;1.90;;;0.35;;
44486;SDS011;30191;50.908;6.962;2023-01-08T06:21:02;0.45;;;0.30;;
44486;SDS011;30191;50.908;6.962;2023-01-08T06:23:29;1.15;;;0.30;;
44486;SDS011;30191;50.908;6.962;2023-01-08T06:25:56;0.35;;;0.30;;
44486;SDS011;30191;50.908;6.962;2023-01-08T06:28:25;2.03;;;0.30;;
44486;SDS011;30191;50.908;6.962;2023-01-08T06:30:50;0.75;;;0.35;;
44486;SDS011;30191;50.908;6.962;2023-01-08T06:33:17;0.45;;;0.30;;
44486;SDS011;30191;50.908;6.962;2023-01-08T06:35:43;1.65;;;0.32;;
44486;SDS011;30191;50.908;6.962;2023-01-08T06:38:09;0.60;;;0.40;;
44486;SDS011;30191;50.908;6.962;2023-01-08T06:40:34;0.38;;;0.30;;
44486;SDS011;30191;50.908;6.962;2023-01-08T06:43:01;1.15;;;0.30;;
44486;SDS011;30191;50.908;6.962;2023-01-08T06:45:27;1.60;;;0.43;;
44486;SDS011;30191;50.908;6.962;2023-01-08T06:47:53;1.65;;;0.43;;
44486;SDS011;30191;50.908;6.962;2023-01-08T06:50:18;0.45;;;0.30;;
44486;SDS011;30191;50.908;6.962;2023-01-08T06:52:50;0.73;;;0.30;;
44486;SDS011;30191;50.908;6.962;2023-01-08T06:55:18;1.17;;;0.40;;
44486;SDS011;30191;50.908;6.962;2023-01-08T06:57:44;0.98;;;0.40;;
44486;SDS011;30191;50.908;6.962;2023-01-08T07:00:09;0.90;;;0.50;;
44486;SDS011;30191;50.908;6.962;2023-01-08T07:02:35;0.82;;;0.30;;
44486;SDS011;30191;50.908;6.962;2023-01-08T07:05:01;1.35;;;0.30;;
44486;SDS011;30191;50.908;6.962;2023-01-08T07:07:27;0.40;;;0.20;;
44486;SDS011;30191;50.908;6.962;2023-01-08T07:09:52;1.20;;;0.30;;
44486;SDS011;30191;50.908;6.962;2023-01-08T07:12:18;1.10;;;0.40;;
44486;SDS011;30191;50.908;6.962;2023-01-08T07:14:44;0.63;;;0.30;;
44486;SDS011;30191;50.908;6.962;2023-01-08T07:17:09;1.60;;;0.40;;
44486;SDS011;30191;50.908;6.962;2023-01-08T07:19:35;1.65;;;0.40;;
44486;SDS011;30191;50.908;6.962;2023-01-08T07:22:01;0.70;;;0.50;;
44486;SDS011;30191;50.908;6.962;2023-01-08T07:24:26;0.70;;;0.40;;
44486;SDS011;30191;50.908;6.962;2023-01-08T07:26:52;2.33;;;0.50;;
44486;SDS011;30191;50.908;6.962;2023-01-08T07:29:18;2.53;;;0.43;;
44486;SDS011;30191;50.908;6.962;2023-01-08T07:31:43;1.08;;;0.47;;
44486;SDS011;30191;50.908;6.962;2023-01-08T07:34:09;1.58;;;0.40;;
44486;SDS011;30191;50.908;6.962;2023-01-08T07:36:35;1.63;;;0.50;;
44486;SDS011;30191;50.908;6.962;2023-01-08T07:39:01;1.10;;;0.45;;
44486;SDS011;30191;50.908;6.962;2023-01-08T07:41:27;0.52;;;0.35;;
44486;SDS011;30191;50.908;6.962;2023-01-08T07:43:52;2.85;;;0.52;;
44486;SDS011;30191;50.908;6.962;2023-01-08T07:46:18;2.15;;;0.70;;
44486;SDS011;30191;50.908;6.962;2023-01-08T07:48:44;1.20;;;0.60;;
44486;SDS011;30191;50.908;6.962;2023-01-08T07:51:09;2.50;;;0.63;;
44486;SDS011;30191;50.908;6.962;2023-01-08T07:53:35;3.67;;;0.50;;
44486;SDS011;30191;50.908;6.962;2023-01-08T07:56:02;2.83;;;0.50;;
44486;SDS011;30191;50.908;6.962;2023-01-08T07:58:30;1.27;;;0.50;;
44486;SDS011;30191;50.908;6.962;2023-01-08T08:00:55;1.13;;;0.50;;
44486;SDS011;30191;50.908;6.962;2023-01-08T08:03:22;1.85;;;0.50;;
44486;SDS011;30191;50.908;6.962;2023-01-08T08:05:48;1.15;;;0.47;;
44486;SDS011;30191;50.908;6.962;2023-01-08T08:08:15;2.42;;;0.90;;
44486;SDS011;30191;50.908;6.962;2023-01-08T08:10:41;2.40;;;1.48;;
44486;SDS011;30191;50.908;6.962;2023-01-08T08:13:07;1.70;;;1.02;;
44486;SDS011;30191;50.908;6.962;2023-01-08T08:15:34;2.08;;;0.73;;
44486;SDS011;30191;50.908;6.962;2023-01-08T08:18:01;1.45;;;0.60;;
44486;SDS011;30191;50.908;6.962;2023-01-08T08:20:27;2.85;;;0.70;;
44486;SDS011;30191;50.908;6.962;2023-01-08T08:22:59;3.47;;;1.10;;
44486;SDS011;30191;50.908;6.962;2023-01-08T08:25:25;2.40;;;1.25;;
44486;SDS011;30191;50.908;6.962;2023-01-08T08:27:51;2.08;;;0.80;;
44486;SDS011;30191;50.908;6.962;2023-01-08T08:30:19;2.50;;;0.80;;
44486;SDS011;30191;50.908;6.962;2023-01-08T08:32:45;3.20;;;0.70;;
44486;SDS011;30191;50.908;6.962;2023-01-08T08:35:11;2.53;;;0.90;;
44486;SDS011;30191;50.908;6.962;2023-01-08T08:37:36;2.65;;;0.80;;
44486;SDS011;30191;50.908;6.962;2023-01-08T08:40:02;2.33;;;0.50;;
44486;SDS011;30191;50.908;6.962;2023-01-08T08:42:28;2.58;;;0.70;;
44486;SDS011;30191;50.908;6.962;2023-01-08T08:44:54;2.30;;;0.70;;
44486;SDS011;30191;50.908;6.962;2023-01-08T08:47:19;1.80;;;0.75;;
44486;SDS011;30191;50.908;6.962;2023-01-08T08:49:45;2.50;;;0.80;;
44486;SDS011;30191;50.908;6.962;2023-01-08T08:52:10;2.63;;;0.60;;
44486;SDS011;30191;50.908;6.962;2023-01-08T08:54:36;3.08;;;0.70;;
44486;SDS011;30191;50.908;6.962;2023-01-08T08:57:05;2.17;;;0.50;;
44486;SDS011;30191;50.908;6.962;2023-01-08T08:59:34;2.83;;;0.73;;
44486;SDS011;30191;50.908;6.962;2023-01-08T09:02:00;3.95;;;0.80;;
44486;SDS011;30191;50.908;6.962;2023-01-08T09:04:28;1.77;;;0.60;;
44486;SDS011;30191;50.908;6.962;2023-01-08T09:06:57;4.57;;;1.00;;
44486;SDS011;30191;50.908;6.962;2023-01-08T09:09:23;3.70;;;0.80;;
44486;SDS011;30191;50.908;6.962;2023-01-08T09:11:49;2.55;;;0.60;;
44486;SDS011;30191;50.908;6.962;2023-01-08T09:14:17;2.08;;;0.70;;
44486;SDS011;30191;50.908;6.962;2023-01-08T09:16:42;2.00;;;0.70;;
44486;SDS011;30191;50.908;6.962;2023-01-08T09:19:08;1.92;;;0.80;;
44486;SDS011;30191;50.908;6.962;2023-01-08T09:21:34;2.20;;;0.57;;
44486;SDS011;30191;50.908;6.962;2023-01-08T09:24:01;2.15;;;0.50;;
44486;SDS011;30191;50.908;6.962;2023-01-08T09:26:27;1.55;;;0.60;;
44486;SDS011;30191;50.908;6.962;2023-01-08T09:28:54;2.50;;;0.68;;
44486;SDS011;30191;50.908;6.962;2023-01-08T09:31:21;2.25;;;0.70;;
44486;SDS011;30191;50.908;6.962;2023-01-08T09:33:47;1.38;;;0.60;;
44486;SDS011;30191;50.908;6.962;2023-01-08T09:36:13;1.65;;;0.60;;
44486;SDS011;30191;50.908;6.962;2023-01-08T09:38:39;1.20;;;0.30;;
44486;SDS011;30191;50.908;6.962;2023-01-08T09:41:06;2.35;;;0.50;;
44486;SDS011;30191;50.908;6.962;2023-01-08T09:43:41;2.03;;;0.52;;
44486;SDS011;30191;50.908;6.962;2023-01-08T09:46:08;2.70;;;0.60;;
44486;SDS011;30191;50.908;6.962;2023-01-08T09:48:38;3.00;;;0.70;;
44486;SDS011;30191;50.908;6.962;2023-01-08T09:51:11;4.55;;;1.00;;
44486;SDS011;30191;50.908;6.962;2023-01-08T09:53:38;2.15;;;0.80;;
44486;SDS011;30191;50.908;6.962;2023-01-08T09:56:15;1.65;;;0.57;;
44486;SDS011;30191;50.908;6.962;2023-01-08T09:58:53;1.67;;;0.75;;
44486;SDS011;30191;50.908;6.962;2023-01-08T10:01:21;2.80;;;0.75;;
44486;SDS011;30191;50.908;6.962;2023-01-08T10:06:22;3.83;;;0.90;;
44486;SDS011;30191;50.908;6.962;2023-01-08T10:08:49;3.10;;;1.10;;
44486;SDS011;30191;50.908;6.962;2023-01-08T10:11:15;3.42;;;0.93;;
44486;SDS011;30191;50.908;6.962;2023-01-08T10:13:43;2.38;;;0.98;;
44486;SDS011;30191;50.908;6.962;2023-01-08T10:16:20;3.58;;;0.90;;
44486;SDS011;30191;50.908;6.962;2023-01-08T10:18:50;3.17;;;0.80;;
44486;SDS011;30191;50.908;6.962;2023-01-08T10:21:16;1.65;;;0.70;;
44486;SDS011;30191;50.908;6.962;2023-01-08T10:23:48;1.83;;;0.70;;
44486;SDS011;30191;50.908;6.962;2023-01-08T10:26:26;4.45;;;1.20;;
44486;SDS011;30191;50.908;6.962;2023-01-08T10:29:15;3.08;;;1.00;;
44486;SDS011;30191;50.908;6.962;2023-01-08T10:31:46;2.88;;;0.68;;
44486;SDS011;30191;50.908;6.962;2023-01-08T10:34:19;2.22;;;1.10;;
44486;SDS011;30191;50.908;6.962;2023-01-08T10:37:12;3.67;;;0.68;;
44486;SDS011;30191;50.908;6.962;2023-01-08T10:39:43;4.95;;;1.00;;
44486;SDS011;30191;50.908;6.962;2023-01-08T10:42:11;2.17;;;0.75;;
44486;SDS011;30191;50.908;6.962;2023-01-08T10:44:43;2.15;;;0.70;;
44486;SDS011;30191;50.908;6.962;2023-01-08T10:47:23;2.58;;;0.60;;
44486;SDS011;30191;50.908;6.962;2023-01-08T10:49:51;2.00;;;0.88;;
44486;SDS011;30191;50.908;6.962;2023-01-08T10:54:55;2.55;;;0.80;;
44486;SDS011;30191;50.908;6.962;2023-01-08T10:59:51;1.95;;;0.80;;
44486;SDS011;30191;50.908;6.962;2023-01-08T11:04:52;2.70;;;0.70;;
44486;SDS011;30191;50.908;6.962;2023-01-08T11:07:19;1.35;;;0.60;;
44486;SDS011;30191;50.908;6.962;2023-01-08T11:09:47;2.35;;;0.88;;
44486;SDS011;30191;50.908;6.962;2023-01-08T11:12:23;1.38;;;0.70;;
44486;SDS011;30191;50.908;6.962;2023-01-08T11:14:57;2.17;;;0.75;;
44486;SDS011;30191;50.908;6.962;2023-01-08T11:17:23;2.75;;;0.93;;
44486;SDS011;30191;50.908;6.962;2023-01-08T11:19:50;1.70;;;0.98;;
44486;SDS011;30191;50.908;6.962;2023-01-08T11:22:19;1.52;;;0.60;;
44486;SDS011;30191;50.908;6.962;2023-01-08T11:24:46;1.38;;;0.80;;
44486;SDS011;30191;50.908;6.962;2023-01-08T11:27:15;1.20;;;0.70;;
44486;SDS011;30191;50.908;6.962;2023-01-08T11:37:42;1.60;;;0.50;;
44486;SDS011;30191;50.908;6.962;2023-01-08T11:40:36;0.82;;;0.50;;
44486;SDS011;30191;50.908;6.962;2023-01-08T11:51:13;1.65;;;0.60;;
44486;SDS011;30191;50.908;6.962;2023-01-08T11:54:13;3.35;;;0.65;;
44486;SDS011;30191;50.908;6.962;2023-01-08T11:59:35;1.50;;;0.50;;
44486;SDS011;30191;50.908;6.962;2023-01-08T12:10:27;0.75;;;0.40;;
44486;SDS011;30191;50.908;6.962;2023-01-08T12:13:03;0.93;;;0.40;;
44486;SDS011;30191;50.908;6.962;2023-01-08T12:19:30;1.77;;;0.63;;
44486;SDS011;30191;50.908;6.962;2023-01-08T12:21:40;1.33;;;0.60;;
44486;SDS011;30191;50.908;6.962;2023-01-08T12:37:30;1.98;;;0.40;;
44486;SDS011;30191;50.908;6.962;2023-01-08T12:40:14;0.75;;;0.35;;
44486;SDS011;30191;50.908;6.962;2023-01-08T12:42:46;3.22;;;0.35;;
44486;SDS011;30191;50.908;6.962;2023-01-08T12:45:55;1.23;;;0.32;;
44486;SDS011;30191;50.908;6.962;2023-01-08T12:48:09;0.75;;;0.30;;
44486;SDS011;30191;50.908;6.962;2023-01-08T12:56:10;0.50;;;0.28;;
44486;SDS011;30191;50.908;6.962;2023-01-08T13:01:33;0.82;;;0.30;;
44486;SDS011;30191;50.908;6.962;2023-01-08T13:04:07;0.73;;;0.20;;
44486;SDS011;30191;50.908;6.962;2023-01-08T13:06:34;0.90;;;0.30;;
44486;SDS011;30191;50.908;6.962;2023-01-08T13:09:00;0.25;;;0.20;;
44486;SDS011;30191;50.908;6.962;2023-01-08T13:11:31;1.50;;;0.20;;
44486;SDS011;30191;50.908;6.962;2023-01-08T13:16:27;1.27;;;0.20;;
44486;SDS011;30191;50.908;6.962;2023-01-08T13:21:35;0.85;;;0.30;;
44486;SDS011;30191;50.908;6.962;2023-01-08T13:24:04;0.88;;;0.30;;
44486;SDS011;30191;50.908;6.962;2023-01-08T13:26:51;0.25;;;0.20;;
44486;SDS011;30191;50.908;6.962;2023-01-08T13:29:36;1.00;;;0.20;;
44486;SDS011;30191;50.908;6.962;2023-01-08T13:32:21;0.20;;;0.20;;
44486;SDS011;30191;50.908;6.962;2023-01-08T13:37:39;0.25;;;0.10;;
44486;SDS011;30191;50.908;6.962;2023-01-08T13:43:04;1.05;;;0.20;;
44486;SDS011;30191;50.908;6.962;2023-01-08T13:45:35;0.50;;;0.30;;
44486;SDS011;30191;50.908;6.962;2023-01-08T13:48:01;0.52;;;0.20;;
44486;SDS011;30191;50.908;6.962;2023-01-08T13:50:27;0.52;;;0.20;;
44486;SDS011;30191;50.908;6.962;2023-01-08T13:53:01;1.38;;;0.20;;
44486;SDS011;30191;50.908;6.962;2023-01-08T13:55:28;0.57;;;0.20;;
44486;SDS011;30191;50.908;6.962;2023-01-08T13:57:58;0.20;;;0.10;;
44486;SDS011;30191;50.908;6.962;2023-01-08T14:02:55;0.40;;;0.20;;
44486;SDS011;30191;50.908;6.962;2023-01-08T14:05:23;0.30;;;0.30;;
44486;SDS011;30191;50.908;6.962;2023-01-08T14:07:53;1.38;;;0.30;;
44486;SDS011;30191;50.908;6.962;2023-01-08T14:10:20;0.85;;;0.30;;
44486;SDS011;30191;50.908;6.962;2023-01-08T14:12:46;1.83;;;0.25;;
44486;SDS011;30191;50.908;6.962;2023-01-08T14:15:20;0.43;;;0.20;;
44486;SDS011;30191;50.908;6.962;2023-01-08T14:17:47;0.70;;;0.30;;
44486;SDS011;30191;50.908;6.962;2023-01-08T14:20:15;0.75;;;0.30;;
44486;SDS011;30191;50.908;6.962;2023-01-08T14:22:54;0.80;;;0.40;;
44486;SDS011;30191;50.908;6.962;2023-01-08T14:25:20;1.60;;;0.40;;
44486;SDS011;30191;50.908;6.962;2023-01-08T14:27:54;1.02;;;0.38;;
44486;SDS011;30191;50.908;6.962;2023-01-08T14:30:25;0.57;;;0.30;;
44486;SDS011;30191;50.908;6.962;2023-01-08T14:32:52;0.40;;;0.20;;
44486;SDS011;30191;50.908;6.962;2023-01-08T14:35:20;0.82;;;0.40;;
44486;SDS011;30191;50.908;6.962;2023-01-08T14:37:56;0.70;;;0.40;;
44486;SDS011;30191;50.908;6.962;2023-01-08T14:40:31;0.70;;;0.40;;
44486;SDS011;30191;50.908;6.962;2023-01-08T14:43:07;1.27;;;0.60;;
44486;SDS011;30191;50.908;6.962;2023-01-08T14:45:35;0.82;;;0.40;;
44486;SDS011;30191;50.908;6.962;2023-01-08T14:50:43;1.35;;;0.40;;
44486;SDS011;30191;50.908;6.962;2023-01-08T14:55:52;1.08;;;0.30;;
44486;SDS011;30191;50.908;6.962;2023-01-08T14:58:24;1.00;;;0.30;;
44486;SDS011;30191;50.908;6.962;2023-01-08T15:01:25;2.80;;;0.50;;
44486;SDS011;30191;50.908;6.962;2023-01-08T15:03:46;0.82;;;0.40;;
44486;SDS011;30191;50.908;6.962;2023-01-08T15:06:26;2.35;;;0.40;;
44486;SDS011;30191;50.908;6.962;2023-01-08T15:08:53;1.53;;;0.37;;
44486;SDS011;30191;50.908;6.962;2023-01-08T15:11:24;0.85;;;0.43;;
44486;SDS011;30191;50.908;6.962;2023-01-08T15:13:54;1.23;;;0.38;;
44486;SDS011;30191;50.908;6.962;2023-01-08T15:19:21;1.55;;;0.50;;
44486;SDS011;30191;50.908;6.962;2023-01-08T15:21:51;1.10;;;0.40;;
44486;SDS011;30191;50.908;6.962;2023-01-08T15:24:26;1.00;;;0.30;;
44486;SDS011;30191;50.908;6.962;2023-01-08T15:26:53;3.55;;;0.40;;
44486;SDS011;30191;50.908;6.962;2023-01-08T15:29:25;0.77;;;0.30;;
44486;SDS011;30191;50.908;6.962;2023-01-08T15:31:57;0.60;;;0.30;;
44486;SDS011;30191;50.908;6.962;2023-01-08T15:34:43;1.13;;;0.20;;
44486;SDS011;30191;50.908;6.962;2023-01-08T15:37:10;0.73;;;0.40;;
44486;SDS011;30191;50.908;6.962;2023-01-08T15:39:36;1.52;;;0.40;;
44486;SDS011;30191;50.908;6.962;2023-01-08T15:42:12;1.20;;;0.40;;
44486;SDS011;30191;50.908;6.962;2023-01-08T15:45:02;1.10;;;0.50;;
44486;SDS011;30191;50.908;6.962;2023-01-08T15:47:29;1.63;;;0.40;;
44486;SDS011;30191;50.908;6.962;2023-01-08T15:49:56;2.42;;;0.40;;
44486;SDS011;30191;50.908;6.962;2023-01-08T15:52:22;1.35;;;0.30;;
44486;SDS011;30191;50.908;6.962;2023-01-08T15:54:54;1.13;;;0.38;;
44486;SDS011;30191;50.908;6.962;2023-01-08T15:57:24;1.10;;;0.38;;
44486;SDS011;30191;50.908;6.962;2023-01-08T15:59:50;2.53;;;0.93;;
44486;SDS011;30191;50.908;6.962;2023-01-08T16:02:16;0.75;;;0.30;;
44486;SDS011;30191;50.908;6.962;2023-01-08T16:04:42;2.25;;;0.50;;
44486;SDS011;30191;50.908;6.962;2023-01-08T16:07:08;1.08;;;0.65;;
44486;SDS011;30191;50.908;6.962;2023-01-08T16:09:33;1.23;;;0.40;;
44486;SDS011;30191;50.908;6.962;2023-01-08T16:11:59;1.60;;;0.50;;
44486;SDS011;30191;50.908;6.962;2023-01-08T16:14:25;0.80;;;0.40;;
44486;SDS011;30191;50.908;6.962;2023-01-08T16:16:50;1.40;;;0.57;;
44486;SDS011;30191;50.908;6.962;2023-01-08T16:19:16;2.35;;;0.60;;
44486;SDS011;30191;50.908;6.962;2023-01-08T16:21:42;1.30;;;0.40;;
44486;SDS011;30191;50.908;6.962;2023-01-08T16:24:12;1.63;;;0.38;;
44486;SDS011;30191;50.908;6.962;2023-01-08T16:26:38;2.95;;;0.80;;
44486;SDS011;30191;50.908;6.962;2023-01-08T16:29:04;3.78;;;2.83;;
44486;SDS011;30191;50.908;6.962;2023-01-08T16:31:29;3.20;;;1.40;;
44486;SDS011;30191;50.908;6.962;2023-01-08T16:34:00;1.00;;;0.70;;